Throop, New York
Current Conditions -  °F | °C
As of 7:54 PM on Wednesday 22 Oct 2014 (Local Time) from KSYR Reporting Station
Overcast Overcast  
Wind Chill: 45°   Ceiling: 2200
Heat Index: 49°   Visibility: 10mi
Dew Point: 42°   Wind: 9mph
Humidity: 77%   Direction: 330°NNW
Pressure: 30.12"   Gusts: NA
Location:  42.9235°N, 76.5525°W
Report Text: KSYR 222354Z 33008KT 10SM OVC022 09/06 A3012 RMK AO2 RAB35E53 SLP199 P0000 60000 T00940056 10133 20094 51006
Loading
Personal Weather Stations






























Interactive Weather Map New forecast layout! Learn more

10-Day Weather Forecast

Advertisements
Track Severe Weather on mobile